Time;durP1;ratioP1;P1;durP2;ratioP2;P2;SDS_P1;SDS_P2;PMS_P1;PMS_P2;Temp;Humidity;BMP_temperature;BMP_pressure;BME280_temperature;BME280_humidity;BME280_pressure;Samples;Min_cycle;Max_cycle;Signal;HPM_P1;HPM_P2
2022/11/17 00:02:03;;;;;;;2.67;1.10;;;;;;;18.13;100.00;96543.63;7397702;19;20035;-63
2022/11/17 00:04:29;;;;;;;0.45;0.45;;;;;;;18.16;100.00;96539.63;7392567;19;20014;-63
2022/11/17 00:06:57;;;;;;;3.13;0.52;;;;;;;18.17;100.00;96532.63;7392220;19;20014;-62
2022/11/17 00:09:23;;;;;;;0.47;0.20;;;;;;;18.05;100.00;96543.13;7392577;19;20038;-62
2022/11/17 00:14:36;;;;;;;1.10;0.17;;;;;;;17.96;100.00;96541.13;7393534;19;20015;-62
2022/11/17 00:17:07;;;;;;;2.10;0.52;;;;;;;17.96;100.00;96538.31;7393762;19;20014;-62
2022/11/17 00:22:18;;;;;;;0.30;0.30;;;;;;;18.13;100.00;96531.63;7396331;19;19922;-62
2022/11/17 00:24:44;;;;;;;0.50;0.47;;;;;;;18.30;100.00;96536.22;7391702;19;20025;-62
2022/11/17 00:27:11;;;;;;;2.30;0.20;;;;;;;18.37;100.00;96538.81;7391777;19;20017;-62
2022/11/17 00:29:37;;;;;;;0.82;0.55;;;;;;;18.53;100.00;96530.66;7393609;19;20495;-62
2022/11/17 00:34:48;;;;;;;0.20;0.20;;;;;;;18.54;100.00;96529.31;7392986;19;20010;-62
2022/11/17 00:37:15;;;;;;;6.40;0.38;;;;;;;18.58;100.00;96524.66;7392773;19;20017;-62
2022/11/17 00:39:42;;;;;;;0.15;0.15;;;;;;;18.44;100.00;96525.84;7391882;19;20011;-62
2022/11/17 00:42:08;;;;;;;0.68;0.40;;;;;;;18.13;100.00;96528.81;7397158;19;20010;-62
2022/11/17 00:44:34;;;;;;;0.25;0.25;;;;;;;18.19;100.00;96527.13;7392794;19;20534;-62
2022/11/17 00:47:00;;;;;;;1.13;0.93;;;;;;;17.97;100.00;96514.47;7389816;19;20014;-62
2022/11/17 00:49:26;;;;;;;0.95;0.50;;;;;;;18.04;100.00;96513.47;7392284;19;20108;-62
2022/11/17 00:51:54;;;;;;;6.85;0.40;;;;;;;18.01;100.00;96511.91;7395155;19;20108;-62
2022/11/17 00:54:22;;;;;;;0.50;0.50;;;;;;;17.89;100.00;96513.94;7392024;19;20016;-62
2022/11/17 00:56:48;;;;;;;1.42;0.68;;;;;;;17.81;100.00;96507.03;7391731;19;20066;-62
2022/11/17 00:59:15;;;;;;;0.60;0.60;;;;;;;17.74;100.00;96507.97;7391944;19;20476;-62
2022/11/17 01:01:42;;;;;;;0.47;0.10;;;;;;;17.70;100.00;96507.72;7395258;19;20028;-62
2022/11/17 01:04:08;;;;;;;3.13;0.98;;;;;;;17.73;100.00;96510.09;7391292;19;20022;-62
2022/11/17 01:06:40;;;;;;;0.68;0.22;;;;;;;17.80;100.00;96508.41;7391177;19;20039;-62
2022/11/17 01:09:10;;;;;;;0.43;0.20;;;;;;;17.82;100.00;96509.25;7391297;19;20027;-62
2022/11/17 01:11:36;;;;;;;0.53;0.33;;;;;;;17.76;100.00;96511.66;7394615;19;20013;-62
2022/11/17 01:14:03;;;;;;;0.40;0.40;;;;;;;17.71;100.00;96500.75;7391168;19;20260;-62
2022/11/17 01:16:30;;;;;;;2.00;0.30;;;;;;;18.13;100.00;96495.75;7390961;19;20070;-62
2022/11/17 01:19:00;;;;;;;0.30;0.25;;;;;;;18.35;100.00;96495.69;7391413;19;20018;-62
2022/11/17 01:21:27;;;;;;;3.78;0.60;;;;;;;18.39;100.00;96499.47;7390768;19;20490;-62
2022/11/17 01:23:55;;;;;;;1.67;0.22;;;;;;;18.18;100.00;96494.69;7389194;19;20011;-62
2022/11/17 01:26:27;;;;;;;1.30;0.40;;;;;;;18.36;100.00;96494.34;7390491;19;20172;-62
2022/11/17 01:28:54;;;;;;;0.30;0.28;;;;;;;18.32;100.00;96491.28;7391057;19;20095;-61
2022/11/17 01:31:24;;;;;;;0.25;0.25;;;;;;;18.29;100.00;96487.59;7394075;19;20034;-61
2022/11/17 01:33:50;;;;;;;0.95;0.40;;;;;;;18.24;100.00;96482.31;7395341;19;20014;-61
2022/11/17 01:36:19;;;;;;;1.50;0.17;;;;;;;18.09;100.00;96491.94;7390890;19;20017;-61
2022/11/17 01:38:46;;;;;;;1.90;0.63;;;;;;;18.09;100.00;96498.31;7389564;19;20002;-61
2022/11/17 01:41:24;;;;;;;2.85;0.60;;;;;;;17.94;100.00;96498.78;7392387;19;20029;-62
2022/11/17 01:43:53;;;;;;;2.40;0.95;;;;;;;17.92;100.00;96495.81;7389430;19;20041;-61
2022/11/17 01:46:39;;;;;;;1.25;0.65;;;;;;;17.80;100.00;96499.94;7390541;19;20018;-61
2022/11/17 01:49:14;;;;;;;0.73;0.73;;;;;;;17.81;100.00;96496.53;7389885;19;20010;-61
2022/11/17 01:51:45;;;;;;;2.35;1.42;;;;;;;17.96;100.00;96493.28;7392513;19;20042;-61
2022/11/17 01:54:18;;;;;;;4.55;1.00;;;;;;;18.06;100.00;96481.91;7390167;19;20017;-61
2022/11/17 01:56:48;;;;;;;4.97;0.63;;;;;;;17.94;100.00;96493.13;7390116;19;20021;-61
2022/11/17 01:59:24;;;;;;;0.70;0.33;;;;;;;18.29;100.00;96492.50;7389146;19;20018;-61
2022/11/17 02:01:56;;;;;;;1.38;0.63;;;;;;;18.36;100.00;96491.53;7391978;19;20464;-61
2022/11/17 02:04:39;;;;;;;1.45;1.08;;;;;;;17.89;100.00;96491.41;7389132;19;20014;-61
2022/11/17 02:07:14;;;;;;;0.47;0.47;;;;;;;18.10;100.00;96485.00;7389970;19;20428;-61
2022/11/17 02:09:42;;;;;;;0.77;0.50;;;;;;;18.23;100.00;96489.28;7389913;19;20039;-61
2022/11/17 02:12:13;;;;;;;0.60;0.60;;;;;;;18.24;100.00;96487.94;7391850;19;20015;-61
2022/11/17 02:14:39;;;;;;;0.50;0.45;;;;;;;18.06;100.00;96496.72;7386999;19;20011;-61
2022/11/17 02:17:07;;;;;;;0.57;0.50;;;;;;;17.89;100.00;96494.22;7386765;19;20029;-61
2022/11/17 02:19:39;;;;;;;3.33;0.77;;;;;;;17.94;100.00;96487.50;7387137;19;20491;-61
2022/11/17 02:22:33;;;;;;;5.00;1.50;;;;;;;17.92;100.00;96495.81;7386818;19;20017;-61
2022/11/17 02:25:37;;;;;;;0.73;0.38;;;;;;;17.96;100.00;96484.06;7386405;19;20014;-61
2022/11/17 02:28:56;;;;;;;4.70;0.88;;;;;;;18.02;100.00;96490.84;7386488;19;20011;-61
2022/11/17 02:31:46;;;;;;;0.85;0.75;;;;;;;17.91;100.00;96488.72;7387555;19;20018;-61
2022/11/17 02:34:47;;;;;;;1.00;0.32;;;;;;;18.00;100.00;96478.69;7388475;19;20021;-61
2022/11/17 02:37:26;;;;;;;2.47;0.98;;;;;;;17.92;100.00;96478.94;7394534;19;20046;-61
2022/11/17 02:40:05;;;;;;;2.50;1.23;;;;;;;17.81;100.00;96478.88;7396715;19;20018;-61
2022/11/17 02:45:36;;;;;;;0.63;0.40;;;;;;;17.89;100.00;96471.69;7396785;19;20013;-60
2022/11/17 02:48:16;;;;;;;3.50;1.85;;;;;;;17.82;100.00;96472.66;7396790;19;20082;-61
2022/11/17 02:50:45;;;;;;;2.90;0.30;;;;;;;17.85;100.00;96477.06;7396979;19;20070;-60
2022/11/17 02:53:13;;;;;;;3.70;0.40;;;;;;;17.76;100.00;96477.19;7395597;19;20019;-60
2022/11/17 02:55:39;;;;;;;2.72;0.60;;;;;;;17.70;100.00;96480.31;7396531;19;20018;-60
2022/11/17 02:58:10;;;;;;;2.58;1.38;;;;;;;17.75;100.00;96481.31;7394477;19;20359;-60
2022/11/17 03:00:48;;;;;;;2.30;1.17;;;;;;;17.75;100.00;96475.69;7396535;19;20045;-61
2022/11/17 03:03:14;;;;;;;0.20;0.20;;;;;;;17.81;100.00;96479.63;7399170;19;20353;-61
2022/11/17 03:06:21;;;;;;;1.92;0.30;;;;;;;17.91;100.00;96490.81;7395186;19;20032;-61
2022/11/17 03:09:14;;;;;;;2.17;0.32;;;;;;;17.96;100.00;96484.06;7395527;19;20566;-61
2022/11/17 03:11:47;;;;;;;1.65;0.75;;;;;;;18.01;100.00;96483.75;7398348;19;20010;-60
2022/11/17 03:14:28;;;;;;;3.72;0.60;;;;;;;18.05;100.00;96484.00;7395743;19;20011;-60
2022/11/17 03:17:01;;;;;;;2.28;1.23;;;;;;;17.63;100.00;96481.25;7395590;19;20070;-60
2022/11/17 03:19:40;;;;;;;2.03;1.60;;;;;;;17.94;100.00;96479.06;7395434;19;20035;-60
2022/11/17 03:22:15;;;;;;;4.05;0.60;;;;;;;18.18;100.00;96477.78;7398902;19;20015;-60
2022/11/17 03:24:49;;;;;;;1.15;0.35;;;;;;;18.07;100.00;96474.94;7394023;19;20470;-60
2022/11/17 03:27:24;;;;;;;0.25;0.25;;;;;;;18.19;100.00;96467.25;7394936;19;20014;-60
2022/11/17 03:29:55;;;;;;;1.30;0.77;;;;;;;18.34;100.00;96460.41;7394878;19;20463;-60
2022/11/17 03:32:23;;;;;;;0.63;0.35;;;;;;;18.65;100.00;96460.94;7399047;19;20038;-60
2022/11/17 03:34:57;;;;;;;0.73;0.65;;;;;;;18.27;100.00;96455.75;7394404;19;20010;-59
2022/11/17 03:37:27;;;;;;;1.67;1.25;;;;;;;18.53;100.00;96452.50;7395288;19;20042;-60
2022/11/17 03:40:00;;;;;;;1.85;0.90;;;;;;;18.42;100.00;96452.44;7395492;19;20370;-60
2022/11/17 03:42:30;;;;;;;7.80;1.40;;;;;;;18.40;100.00;96453.06;7398792;19;20096;-60
2022/11/17 03:45:02;;;;;;;1.33;0.93;;;;;;;18.30;100.00;96455.25;7394707;19;20468;-61
2022/11/17 03:47:32;;;;;;;1.15;0.52;;;;;;;17.94;100.00;96452.97;7393975;19;20038;-60
2022/11/17 03:49:58;;;;;;;7.18;0.93;;;;;;;18.20;100.00;96457.44;7392884;19;20035;-60
2022/11/17 03:52:28;;;;;;;1.35;0.63;;;;;;;18.12;100.00;96449.25;7397902;19;20157;-60
2022/11/17 03:54:55;;;;;;;0.98;0.43;;;;;;;17.96;100.00;96450.28;7394248;19;20011;-60
2022/11/17 03:57:47;;;;;;;2.33;0.70;;;;;;;18.09;100.00;96447.63;7394218;19;20010;-60
2022/11/17 04:00:15;;;;;;;1.58;0.47;;;;;;;18.22;100.00;96454.75;7392303;19;20010;-60
2022/11/17 04:02:43;;;;;;;0.95;0.20;;;;;;;18.22;100.00;96445.56;7395671;19;20356;-60
2022/11/17 04:05:11;;;;;;;0.70;0.32;;;;;;;18.09;100.00;96453.25;7391264;19;20380;-60
2022/11/17 04:07:40;;;;;;;0.80;0.28;;;;;;;18.01;100.00;96449.94;7393276;19;20034;-60
2022/11/17 04:10:13;;;;;;;1.85;0.45;;;;;;;18.01;100.00;96449.94;7393482;19;20360;-60
2022/11/17 04:18:29;;;;;;;1.02;0.20;;;;;;;18.13;100.00;96447.88;7389546;19;20006;-61
2022/11/17 04:20:56;;;;;;;0.65;0.40;;;;;;;17.96;100.00;96448.22;7389913;19;20011;-61
2022/11/17 04:23:23;;;;;;;0.95;0.32;;;;;;;18.13;100.00;96445.06;7389935;19;20015;-60
2022/11/17 04:28:41;;;;;;;0.20;0.20;;;;;;;17.86;100.00;96447.59;7392585;19;20017;-61
2022/11/17 04:31:15;;;;;;;2.78;0.52;;;;;;;17.93;100.00;96440.97;7394076;19;20033;-61
2022/11/17 04:33:44;;;;;;;0.40;0.10;;;;;;;18.02;100.00;96442.22;7397383;19;20102;-61
2022/11/17 04:36:12;;;;;;;1.00;0.25;;;;;;;17.88;100.00;96439.28;7393145;19;20024;-61
2022/11/17 04:38:43;;;;;;;0.28;0.22;;;;;;;18.01;100.00;96455.59;7392797;19;20007;-61
2022/11/17 04:43:56;;;;;;;5.20;0.50;;;;;;;17.85;100.00;96457.38;7392631;19;20325;-61
2022/11/17 04:46:23;;;;;;;0.20;0.10;;;;;;;17.83;100.00;96448.06;7391637;19;20482;-61
2022/11/17 04:48:54;;;;;;;0.85;0.35;;;;;;;17.78;100.00;96441.44;7393422;19;20006;-61
2022/11/17 04:51:20;;;;;;;2.20;0.70;;;;;;;17.70;100.00;96446.53;7392693;19;20010;-61
2022/11/17 04:53:46;;;;;;;1.25;0.35;;;;;;;17.77;100.00;96453.31;7392772;19;20010;-60
2022/11/17 04:56:13;;;;;;;0.45;0.17;;;;;;;17.92;100.00;96450.78;7392609;19;20007;-61
2022/11/17 04:58:40;;;;;;;0.28;0.28;;;;;;;17.91;100.00;96445.78;7388983;19;20106;-61
2022/11/17 05:01:14;;;;;;;1.27;0.30;;;;;;;18.12;100.00;96454.88;7392433;19;20010;-61
2022/11/17 05:04:04;;;;;;;0.90;0.22;;;;;;;18.21;100.00;96453.31;7395166;19;20094;-61
2022/11/17 05:06:33;;;;;;;0.98;0.63;;;;;;;18.13;100.00;96447.88;7391451;19;20014;-61
2022/11/17 05:09:02;;;;;;;0.82;0.70;;;;;;;18.27;100.00;96458.56;7390436;19;20010;-61
2022/11/17 05:14:18;;;;;;;0.10;0.10;;;;;;;18.19;100.00;96451.06;7392368;19;20525;-61
2022/11/17 05:19:34;;;;;;;1.60;0.85;;;;;;;18.08;100.00;96457.41;7391618;19;20025;-60
2022/11/17 05:22:01;;;;;;;0.45;0.45;;;;;;;17.91;100.00;96452.13;7394262;19;20353;-60
2022/11/17 05:24:27;;;;;;;0.10;0.00;;;;;;;17.78;100.00;96457.59;7391282;19;20078;-60
2022/11/17 05:26:54;;;;;;;0.52;0.52;;;;;;;17.65;100.00;96461.69;7391158;19;20018;-60
2022/11/17 05:29:21;;;;;;;3.10;0.30;;;;;;;17.50;100.00;96462.13;7391323;19;20011;-60
2022/11/17 05:31:48;;;;;;;0.57;0.35;;;;;;;17.28;100.00;96457.84;7394282;19;20103;-60
2022/11/17 05:34:16;;;;;;;0.52;0.22;;;;;;;17.25;100.00;96456.22;7390935;19;20018;-60
2022/11/17 05:36:43;;;;;;;0.43;0.43;;;;;;;17.36;100.00;96461.94;7389142;19;20015;-60
2022/11/17 05:39:09;;;;;;;2.42;0.63;;;;;;;17.24;100.00;96460.38;7391241;19;20006;-60
2022/11/17 05:41:39;;;;;;;0.30;0.20;;;;;;;17.14;100.00;96457.63;7393983;19;20090;-60
2022/11/17 05:44:05;;;;;;;0.93;0.20;;;;;;;17.15;100.00;96461.19;7391728;19;20029;-60
2022/11/17 05:46:31;;;;;;;1.75;0.77;;;;;;;17.33;100.00;96459.56;7390401;19;20050;-60
2022/11/17 05:48:58;;;;;;;0.88;0.50;;;;;;;17.37;100.00;96459.81;7391602;19;20014;-59
2022/11/17 05:51:24;;;;;;;0.40;0.20;;;;;;;17.41;100.00;96460.13;7393291;19;20478;-60
2022/11/17 05:53:51;;;;;;;4.03;0.70;;;;;;;17.49;100.00;96463.44;7391153;19;20391;-60
2022/11/17 05:56:34;;;;;;;1.10;0.20;;;;;;;17.43;100.00;96460.97;7388273;19;20014;-60
2022/11/17 05:59:20;;;;;;;0.40;0.30;;;;;;;17.52;100.00;96462.25;7390264;19;20031;-60
2022/11/17 06:01:57;;;;;;;1.30;0.30;;;;;;;17.65;100.00;96456.06;7393330;19;20045;-60
2022/11/17 06:04:23;;;;;;;0.43;0.43;;;;;;;17.73;100.00;96450.22;7389885;19;20014;-59
2022/11/17 06:06:49;;;;;;;0.20;0.20;;;;;;;17.83;100.00;96457.25;7389967;19;20011;-59
2022/11/17 06:09:16;;;;;;;0.20;0.20;;;;;;;17.89;100.00;96454.81;7388938;19;20011;-59
2022/11/17 06:11:42;;;;;;;0.10;0.10;;;;;;;18.00;100.00;96465.38;7392702;19;20023;-60
2022/11/17 06:14:08;;;;;;;3.35;0.50;;;;;;;18.07;100.00;96455.22;7388826;19;20471;-60
2022/11/17 06:16:38;;;;;;;1.35;0.90;;;;;;;18.17;100.00;96464.28;7388573;19;20014;-60
2022/11/17 06:19:14;;;;;;;1.30;1.20;;;;;;;18.17;100.00;96453.75;7392733;19;20021;-60
2022/11/17 06:21:40;;;;;;;1.13;0.40;;;;;;;18.07;100.00;96478.50;7390911;19;20496;-60
2022/11/17 06:24:08;;;;;;;1.83;0.77;;;;;;;18.11;100.00;96467.47;7388603;19;20011;-60
2022/11/17 06:26:34;;;;;;;1.05;0.43;;;;;;;18.07;100.00;96460.84;7388928;19;20006;-60
2022/11/17 06:29:03;;;;;;;1.92;0.55;;;;;;;18.17;100.00;96458.66;7389503;19;20039;-60
2022/11/17 06:31:31;;;;;;;0.68;0.13;;;;;;;18.30;100.00;96465.81;7391192;19;20448;-60
2022/11/17 06:34:00;;;;;;;0.30;0.30;;;;;;;18.07;100.00;96458.78;7393361;19;20010;-60
2022/11/17 06:36:29;;;;;;;0.20;0.13;;;;;;;18.09;100.00;96458.16;7387570;19;20477;-60
2022/11/17 06:38:55;;;;;;;1.00;0.10;;;;;;;18.05;100.00;96467.09;7389522;19;20014;-60
2022/11/17 06:41:21;;;;;;;0.63;0.32;;;;;;;18.03;100.00;96454.97;7391137;19;20035;-60
2022/11/17 06:43:47;;;;;;;0.25;0.25;;;;;;;18.09;100.00;96453.25;7389637;19;20103;-60
2022/11/17 06:46:14;;;;;;;1.50;0.40;;;;;;;18.18;100.00;96458.06;7388786;19;20015;-60
2022/11/17 06:48:40;;;;;;;0.40;0.38;;;;;;;18.60;100.00;96456.41;7389919;19;20506;-60
2022/11/17 06:51:06;;;;;;;0.25;0.13;;;;;;;18.88;100.00;96453.19;7389704;19;20358;-60
2022/11/17 06:53:33;;;;;;;0.10;0.10;;;;;;;19.02;100.00;96453.31;7390735;19;20054;-60
2022/11/17 06:56:01;;;;;;;0.50;0.50;;;;;;;18.78;100.00;96458.25;7389886;19;20029;-60
2022/11/17 06:58:28;;;;;;;0.43;0.28;;;;;;;18.59;100.00;96452.13;7388776;19;20011;-61
2022/11/17 07:01:04;;;;;;;2.42;0.20;;;;;;;18.34;100.00;96454.78;7390337;19;20045;-60
2022/11/17 07:03:32;;;;;;;0.20;0.10;;;;;;;18.37;100.00;96459.19;7392000;19;20026;-60
2022/11/17 07:05:59;;;;;;;1.33;0.20;;;;;;;18.50;100.00;96455.78;7389291;19;20368;-61
2022/11/17 07:08:26;;;;;;;0.10;0.00;;;;;;;18.39;100.00;96467.75;7388570;19;20015;-60
2022/11/17 07:10:53;;;;;;;0.17;0.17;;;;;;;18.42;100.00;96456.00;7388471;19;20417;-61
2022/11/17 07:13:23;;;;;;;1.88;0.17;;;;;;;18.37;100.00;96464.81;7388514;19;20070;-60
2022/11/17 07:15:50;;;;;;;1.55;0.52;;;;;;;18.78;100.00;96471.59;7388344;19;20022;-60
2022/11/17 07:18:18;;;;;;;0.65;0.28;;;;;;;19.00;100.00;96467.28;7388768;19;20006;-60
2022/11/17 07:20:46;;;;;;;0.10;0.00;;;;;;;19.27;100.00;96472.41;7391007;19;20017;-60
2022/11/17 07:23:13;;;;;;;0.25;0.10;;;;;;;19.31;100.00;96467.72;7395974;19;20015;-60
2022/11/17 07:25:39;;;;;;;0.75;0.75;;;;;;;19.19;100.00;96467.00;7393306;19;20075;-61
2022/11/17 07:28:06;;;;;;;0.40;0.40;;;;;;;19.32;100.00;96465.63;7394645;19;20126;-61
2022/11/17 07:30:32;;;;;;;11.70;0.40;;;;;;;19.24;100.00;96468.72;7396178;19;20054;-60
2022/11/17 07:32:59;;;;;;;9.55;2.38;;;;;;;19.21;100.00;96475.59;7398296;19;20010;-60
2022/11/17 07:35:26;;;;;;;1.23;0.40;;;;;;;19.16;100.00;96485.19;7394983;19;20471;-61
2022/11/17 07:37:58;;;;;;;0.30;0.20;;;;;;;19.18;100.00;96476.09;7395053;19;20602;-56
2022/11/17 07:40:24;;;;;;;0.20;0.20;;;;;;;19.20;100.00;96481.84;7394448;19;20030;-56
2022/11/17 07:42:50;;;;;;;1.17;0.38;;;;;;;18.69;100.00;96478.13;7395490;19;20006;-55
2022/11/17 07:45:16;;;;;;;1.17;0.35;;;;;;;18.86;100.00;96494.66;7394329;19;20019;-55
2022/11/17 07:47:43;;;;;;;0.57;0.57;;;;;;;19.06;100.00;96486.69;7396593;19;20026;-55
2022/11/17 07:50:09;;;;;;;1.33;0.10;;;;;;;19.03;100.00;96485.81;7396992;19;20063;-56
2022/11/17 07:52:35;;;;;;;0.65;0.20;;;;;;;18.91;100.00;96491.47;7397401;19;20359;-56
2022/11/17 07:55:01;;;;;;;0.40;0.32;;;;;;;18.93;100.00;96490.84;7397761;19;20014;-55
2022/11/17 07:57:28;;;;;;;0.10;0.10;;;;;;;19.16;100.00;96495.72;7397016;19;20066;-55
2022/11/17 07:59:54;;;;;;;0.38;0.38;;;;;;;19.27;100.00;96489.34;7397556;19;20048;-55
2022/11/17 08:02:20;;;;;;;0.40;0.38;;;;;;;19.22;100.00;96494.00;7396395;19;20019;-55
2022/11/17 08:04:46;;;;;;;0.43;0.30;;;;;;;19.00;100.00;96494.75;7394889;19;20014;-55
2022/11/17 08:07:12;;;;;;;0.65;0.28;;;;;;;19.08;100.00;96495.25;7397630;19;20011;-55
2022/11/17 08:09:39;;;;;;;2.67;0.70;;;;;;;18.92;100.00;96495.00;7393297;19;20007;-55
2022/11/17 08:12:05;;;;;;;0.68;0.50;;;;;;;18.70;100.00;96500.03;7398136;19;20014;-55
2022/11/17 08:14:31;;;;;;;0.73;0.40;;;;;;;18.58;100.00;96501.38;7394542;19;20013;-55
2022/11/17 08:16:57;;;;;;;0.30;0.30;;;;;;;18.54;100.00;96493.41;7393750;19;20011;-55
2022/11/17 08:19:23;;;;;;;0.25;0.10;;;;;;;18.52;100.00;96501.00;7394365;19;20341;-55
2022/11/17 08:21:50;;;;;;;1.33;0.15;;;;;;;18.54;100.00;96503.94;7393803;19;20007;-55
2022/11/17 08:24:16;;;;;;;0.10;0.10;;;;;;;18.45;100.00;96502.69;7392397;19;20361;-55
2022/11/17 08:26:42;;;;;;;0.43;0.17;;;;;;;18.42;100.00;96489.81;7393390;19;20015;-55
2022/11/17 08:29:08;;;;;;;4.88;0.88;;;;;;;18.41;100.00;96502.44;7392873;19;20037;-56
2022/11/17 08:31:34;;;;;;;3.85;1.02;;;;;;;18.44;100.00;96495.59;7395549;19;20040;-55
2022/11/17 08:34:00;;;;;;;0.10;0.10;;;;;;;18.55;100.00;96502.59;7393126;19;20022;-55
2022/11/17 08:36:27;;;;;;;1.15;0.35;;;;;;;18.51;100.00;96502.34;7392996;19;20025;-55
2022/11/17 08:38:53;;;;;;;1.05;0.32;;;;;;;18.54;100.00;96512.38;7392297;19;20106;-56
2022/11/17 08:41:20;;;;;;;0.65;0.60;;;;;;;18.51;100.00;96508.00;7394438;19;20042;-56
2022/11/17 08:43:46;;;;;;;0.85;0.43;;;;;;;18.52;100.00;96501.00;7393473;19;20018;-56
2022/11/17 08:46:13;;;;;;;0.10;0.08;;;;;;;18.62;100.00;96516.47;7392582;19;20351;-56
2022/11/17 08:48:39;;;;;;;0.50;0.50;;;;;;;18.44;100.00;96508.94;7393803;19;20015;-56
2022/11/17 08:51:07;;;;;;;4.68;1.80;;;;;;;18.50;100.00;96509.31;7394393;19;20019;-56
2022/11/17 08:53:33;;;;;;;1.13;0.30;;;;;;;18.60;100.00;96513.50;7393316;19;20007;-56
2022/11/17 08:55:59;;;;;;;0.90;0.45;;;;;;;18.77;100.00;96518.06;7392599;19;20078;-56
2022/11/17 08:58:25;;;;;;;4.55;0.57;;;;;;;19.01;100.00;96513.91;7391486;19;20011;-56
2022/11/17 09:00:51;;;;;;;11.80;0.47;;;;;;;19.11;100.00;96522.22;7392983;19;20006;-56
2022/11/17 09:03:17;;;;;;;3.17;0.75;;;;;;;19.20;100.00;96522.09;7395518;19;20471;-56
2022/11/17 09:05:47;;;;;;;5.18;0.70;;;;;;;19.20;100.00;96519.28;7390453;19;20685;-56
2022/11/17 09:08:14;;;;;;;0.60;0.50;;;;;;;19.27;100.00;96515.47;7392233;19;20007;-55
2022/11/17 09:10:40;;;;;;;0.63;0.40;;;;;;;19.34;100.00;96502.44;7391834;19;20085;-55
2022/11/17 09:13:06;;;;;;;0.45;0.25;;;;;;;19.14;100.00;96510.44;7391154;19;20010;-55
2022/11/17 09:15:33;;;;;;;0.10;0.08;;;;;;;19.33;100.00;96507.34;7390246;19;20010;-55
2022/11/17 09:18:00;;;;;;;5.97;0.75;;;;;;;19.46;99.36;96508.81;7391936;19;20023;-55
2022/11/17 09:20:26;;;;;;;2.13;0.57;;;;;;;19.55;99.05;96507.94;7392371;19;20014;-55
2022/11/17 09:22:53;;;;;;;2.60;0.82;;;;;;;19.61;98.50;96509.03;7391672;19;20011;-54
2022/11/17 09:25:19;;;;;;;1.38;0.43;;;;;;;19.58;98.46;96513.06;7390439;19;20357;-54
2022/11/17 09:27:48;;;;;;;0.43;0.20;;;;;;;19.41;99.03;96516.31;7392261;19;20377;-55
2022/11/17 09:30:20;;;;;;;2.05;0.40;;;;;;;19.05;100.00;96516.97;7391557;19;20007;-54
2022/11/17 09:32:50;;;;;;;0.57;0.10;;;;;;;19.37;99.06;96521.72;7392638;19;20021;-54
2022/11/17 09:35:17;;;;;;;1.55;0.35;;;;;;;19.38;99.50;96522.47;7390885;19;20048;-54
2022/11/17 09:37:43;;;;;;;7.13;0.85;;;;;;;19.05;100.00;96514.13;7390731;19;20015;-54
2022/11/17 09:40:14;;;;;;;0.38;0.35;;;;;;;19.17;100.00;96509.22;7392413;19;20019;-54
2022/11/17 09:42:41;;;;;;;6.30;0.47;;;;;;;19.22;100.00;96521.47;7391336;19;20013;-54
2022/11/17 09:45:19;;;;;;;0.28;0.17;;;;;;;19.32;100.00;96527.69;7390786;19;20006;-54
2022/11/17 09:48:10;;;;;;;0.60;0.40;;;;;;;19.45;99.48;96508.06;7390740;19;20044;-54
2022/11/17 09:50:38;;;;;;;0.38;0.28;;;;;;;19.02;100.00;96521.00;7392103;19;20011;-54
2022/11/17 09:53:25;;;;;;;1.05;0.65;;;;;;;18.88;100.00;96518.03;7388977;19;20019;-54
2022/11/17 09:55:56;;;;;;;1.35;0.20;;;;;;;18.74;100.00;96522.84;7392239;19;20018;-54
2022/11/17 09:58:36;;;;;;;2.50;0.52;;;;;;;18.78;100.00;96519.53;7389758;19;20381;-56
2022/11/17 10:01:03;;;;;;;0.43;0.43;;;;;;;18.84;100.00;96529.09;7391408;19;20422;-56
2022/11/17 10:03:36;;;;;;;1.38;0.85;;;;;;;19.01;100.00;96525.19;7393200;19;20018;-55
2022/11/17 10:06:11;;;;;;;0.30;0.20;;;;;;;18.88;100.00;96520.16;7386382;19;20074;-55
2022/11/17 10:08:59;;;;;;;0.30;0.10;;;;;;;18.81;100.00;96521.13;7388048;19;20017;-55
2022/11/17 10:11:35;;;;;;;0.80;0.75;;;;;;;18.98;100.00;96522.84;7388024;19;20014;-55
2022/11/17 10:14:07;;;;;;;0.20;0.13;;;;;;;19.00;100.00;96528.59;7389350;19;20007;-55
2022/11/17 10:16:35;;;;;;;2.92;0.40;;;;;;;18.78;100.00;96525.16;7388969;19;20027;-55
2022/11/17 10:19:18;;;;;;;0.52;0.20;;;;;;;18.82;100.00;96531.78;7389549;19;20369;-56
2022/11/17 10:21:49;;;;;;;0.82;0.25;;;;;;;18.85;100.00;96518.56;7391487;19;20014;-56
2022/11/17 10:24:33;;;;;;;2.05;0.52;;;;;;;18.99;100.00;96527.88;7391483;19;20015;-55
2022/11/17 10:27:15;;;;;;;1.98;0.13;;;;;;;19.28;100.00;96533.84;7390412;19;20015;-55
2022/11/17 10:30:22;;;;;;;0.30;0.10;;;;;;;19.24;100.00;96527.22;7390332;19;20003;-55
2022/11/17 10:32:51;;;;;;;5.88;0.30;;;;;;;19.32;100.00;96531.25;7392677;19;20421;-55
2022/11/17 10:35:24;;;;;;;0.10;0.10;;;;;;;19.47;100.00;96533.59;7390559;19;20019;-55
2022/11/17 10:38:13;;;;;;;0.75;0.30;;;;;;;19.96;100.00;96551.28;7391782;19;20010;-55
2022/11/17 10:40:39;;;;;;;0.40;0.03;;;;;;;20.01;99.20;96526.81;7391466;19;20011;-56
2022/11/17 10:43:11;;;;;;;1.17;0.40;;;;;;;19.93;99.03;96546.09;7390516;19;20007;-55
2022/11/17 10:45:48;;;;;;;0.10;0.10;;;;;;;19.59;100.00;96539.97;7394719;19;20010;-56
2022/11/17 10:48:31;;;;;;;0.65;0.30;;;;;;;19.32;100.00;96539.72;7387733;19;20352;-55
2022/11/17 10:51:00;;;;;;;1.65;0.60;;;;;;;19.18;100.00;96547.38;7390541;19;20003;-55
2022/11/17 10:53:28;;;;;;;0.40;0.20;;;;;;;19.07;100.00;96545.28;7391738;19;20082;-55
2022/11/17 10:56:01;;;;;;;0.25;0.20;;;;;;;19.16;100.00;96535.97;7392354;19;20021;-55
2022/11/17 10:58:29;;;;;;;0.57;0.10;;;;;;;19.61;100.00;96531.59;7397492;19;20013;-55
2022/11/17 11:00:58;;;;;;;4.97;0.45;;;;;;;19.65;100.00;96545.97;7397517;19;20011;-55
2022/11/17 11:03:33;;;;;;;5.47;0.85;;;;;;;19.65;100.00;96545.97;7399045;19;20407;-55
2022/11/17 11:06:20;;;;;;;0.45;0.30;;;;;;;19.71;100.00;96542.03;7395753;19;20026;-56
2022/11/17 11:08:58;;;;;;;0.20;0.17;;;;;;;19.53;100.00;96545.22;7395856;19;20011;-55
2022/11/17 11:11:35;;;;;;;0.35;0.10;;;;;;;19.56;100.00;96549.66;7398097;19;20007;-55
2022/11/17 11:14:14;;;;;;;0.20;0.20;;;;;;;19.42;100.00;96543.19;7395258;19;20014;-54
2022/11/17 11:16:44;;;;;;;3.50;0.20;;;;;;;19.37;100.00;96538.66;7393369;19;20010;-55
2022/11/17 11:19:14;;;;;;;0.70;0.65;;;;;;;19.76;100.00;96533.16;7396126;19;20025;-55
2022/11/17 11:21:52;;;;;;;0.40;0.30;;;;;;;19.73;100.00;96544.97;7398231;19;20011;-56
2022/11/17 11:24:39;;;;;;;1.45;0.10;;;;;;;19.68;100.00;96544.72;7393520;19;20038;-56
2022/11/17 11:27:22;;;;;;;0.30;0.30;;;;;;;19.61;100.00;96557.03;7394859;19;20019;-55
2022/11/17 11:30:02;;;;;;;0.35;0.10;;;;;;;19.72;100.00;96537.84;7395931;19;20067;-55
2022/11/17 11:32:50;;;;;;;2.10;0.30;;;;;;;20.16;98.63;96546.03;7399595;19;20011;-56
2022/11/17 11:35:42;;;;;;;0.10;0.10;;;;;;;19.88;98.58;96547.25;7395365;19;20366;-56
2022/11/17 11:38:39;;;;;;;0.10;0.10;;;;;;;19.94;97.78;96542.69;7395075;19;20011;-56
2022/11/17 11:41:25;;;;;;;0.10;0.10;;;;;;;20.16;97.72;96546.03;7396526;19;20527;-56
2022/11/17 11:44:00;;;;;;;0.30;0.30;;;;;;;20.07;98.34;96541.28;7393780;19;20011;-56
2022/11/17 11:47:08;;;;;;;1.50;0.28;;;;;;;20.13;98.16;96552.91;7394355;19;20015;-56
2022/11/17 11:49:39;;;;;;;1.65;0.40;;;;;;;20.07;98.78;96553.31;7394317;19;20527;-56
2022/11/17 11:52:16;;;;;;;0.57;0.32;;;;;;;20.00;98.62;96553.56;7398024;19;20506;-56
2022/11/17 11:54:53;;;;;;;1.17;0.20;;;;;;;19.89;99.20;96548.69;7394685;19;20027;-56
2022/11/17 11:57:25;;;;;;;0.10;0.10;;;;;;;19.75;100.00;96553.56;7394092;19;20021;-55
2022/11/17 11:59:57;;;;;;;0.47;0.20;;;;;;;19.94;99.38;96548.34;7393993;19;20015;-55
2022/11/17 12:02:44;;;;;;;0.50;0.28;;;;;;;19.66;100.00;96553.06;7398082;19;20027;-55
2022/11/17 12:05:31;;;;;;;1.45;0.25;;;;;;;19.47;100.00;96552.63;7389814;19;20558;-55
2022/11/17 12:08:07;;;;;;;0.45;0.10;;;;;;;19.67;100.00;96554.53;7393446;19;20011;-55
2022/11/17 12:11:59;;;;;;;0.95;0.30;;;;;;;19.83;100.00;96559.66;7394007;19;20010;-55
2022/11/17 12:13:51;;;;;;;0.15;0.15;;;;;;;19.74;100.00;96546.41;7394272;19;20454;-56
2022/11/17 12:16:46;;;;;;;3.80;0.38;;;;;;;20.04;99.46;96556.63;7392824;19;20050;-55